createdAt,value
2023-04-02T00:00:10.416Z,8.28
2023-04-02T00:01:10.393Z,8.27
2023-04-02T00:02:10.413Z,8.27
2023-04-02T00:03:10.510Z,8.24
2023-04-02T00:04:10.451Z,8.19
2023-04-02T00:05:10.369Z,8.16
2023-04-02T00:06:10.333Z,8.16
2023-04-02T00:07:10.339Z,8.15
2023-04-02T00:08:10.411Z,8.13
2023-04-02T00:09:10.329Z,8.13
2023-04-02T00:10:10.304Z,8.12
2023-04-02T00:11:10.284Z,8.10
2023-04-02T00:12:10.316Z,8.12
2023-04-02T00:13:10.293Z,8.10
2023-04-02T00:14:10.262Z,8.08
2023-04-02T00:15:10.242Z,8.09
2023-04-02T00:16:10.301Z,8.08
2023-04-02T00:17:10.233Z,8.09
2023-04-02T00:18:10.290Z,8.13
2023-04-02T00:19:10.209Z,8.13
2023-04-02T00:20:11.200Z,8.10
2023-04-02T00:21:10.167Z,8.09
2023-04-02T00:22:10.162Z,8.09
2023-04-02T00:23:10.160Z,8.06
2023-04-02T00:24:10.187Z,8.06
2023-04-02T00:25:10.151Z,8.06
2023-04-02T00:26:10.139Z,8.06
2023-04-02T00:27:10.124Z,8.05
2023-04-02T00:28:10.102Z,8.05
2023-04-02T00:29:10.147Z,8.03
2023-04-02T00:30:10.147Z,7.98
2023-04-02T00:31:10.087Z,7.97
2023-04-02T00:32:10.517Z,7.97
2023-04-02T00:33:10.077Z,7.95
2023-04-02T00:34:10.032Z,7.94
2023-04-02T00:35:10.048Z,7.97
2023-04-02T00:36:10.065Z,7.93
2023-04-02T00:37:10.039Z,7.95
2023-04-02T00:38:09.982Z,7.95
2023-04-02T00:39:09.979Z,7.95
2023-04-02T00:40:11.008Z,7.98
2023-04-02T00:41:09.985Z,7.95
2023-04-02T00:42:09.959Z,7.93
2023-04-02T00:43:09.933Z,7.90
2023-04-02T00:44:09.917Z,7.88
2023-04-02T00:45:09.928Z,7.85
2023-04-02T00:46:09.970Z,7.82
2023-04-02T00:47:09.919Z,7.80
2023-04-02T00:48:10.871Z,7.80
2023-04-02T00:49:09.886Z,7.80
2023-04-02T00:50:09.871Z,7.80
2023-04-02T00:51:10.833Z,7.77
2023-04-02T00:52:09.873Z,7.77
2023-04-02T00:53:09.859Z,7.79
2023-04-02T00:54:09.823Z,7.80
2023-04-02T00:55:09.811Z,7.83
2023-04-02T00:56:09.814Z,7.83
2023-04-02T00:57:09.886Z,7.85
2023-04-02T00:58:09.796Z,7.82
2023-04-02T00:59:09.772Z,7.80
2023-04-02T01:00:09.757Z,7.79
2023-04-02T01:01:09.789Z,7.80
2023-04-02T01:02:09.745Z,7.79
2023-04-02T01:03:09.791Z,7.75
2023-04-02T01:04:09.705Z,7.75
2023-04-02T01:05:09.736Z,7.73
2023-04-02T01:06:09.687Z,7.70
2023-04-02T01:07:09.680Z,7.67
2023-04-02T01:08:09.664Z,7.63
2023-04-02T01:09:09.648Z,7.60
2023-04-02T01:10:09.620Z,7.57
2023-04-02T01:11:09.638Z,7.54
2023-04-02T01:12:09.592Z,7.51
2023-04-02T01:13:10.604Z,7.48
2023-04-02T01:14:10.583Z,7.47
2023-04-02T01:15:09.567Z,7.47
2023-04-02T01:16:09.630Z,7.43
2023-04-02T01:17:09.574Z,7.42
2023-04-02T01:18:09.527Z,7.40
2023-04-02T01:19:09.521Z,7.40
2023-04-02T01:20:10.501Z,7.39
2023-04-02T01:21:09.504Z,7.38
2023-04-02T01:22:09.502Z,7.33
2023-04-02T01:23:09.482Z,7.35
2023-04-02T01:24:09.467Z,7.36
2023-04-02T01:25:09.529Z,7.36
2023-04-02T01:26:09.470Z,7.36
2023-04-02T01:27:09.458Z,7.32
2023-04-02T01:28:09.470Z,7.33
2023-04-02T01:29:09.409Z,7.35
2023-04-02T01:30:09.414Z,7.38
2023-04-02T01:31:09.451Z,7.36
2023-04-02T01:32:09.397Z,7.40
2023-04-02T01:33:09.426Z,7.43
2023-04-02T01:34:09.358Z,7.42
2023-04-02T01:35:09.383Z,7.40
2023-04-02T01:36:09.351Z,7.39
2023-04-02T01:37:09.317Z,7.40
2023-04-02T01:38:09.306Z,7.40
2023-04-02T01:39:09.294Z,7.42
2023-04-02T01:40:09.291Z,7.45
2023-04-02T01:41:09.309Z,7.48
2023-04-02T01:42:09.265Z,7.48
2023-04-02T01:43:09.293Z,7.53
2023-04-02T01:44:09.286Z,7.56
2023-04-02T01:45:09.248Z,7.56
2023-04-02T01:46:09.226Z,7.53
2023-04-02T01:47:10.166Z,7.54
2023-04-02T01:48:09.240Z,7.51
2023-04-02T01:49:09.203Z,7.51
2023-04-02T01:50:09.172Z,7.50
2023-04-02T01:51:09.188Z,7.47
2023-04-02T01:52:09.156Z,7.45
2023-04-02T01:53:09.141Z,7.42
2023-04-02T01:54:10.620Z,7.42
2023-04-02T01:55:09.130Z,7.43
2023-04-02T01:56:09.131Z,7.43
2023-04-02T01:57:09.172Z,7.45
2023-04-02T01:58:09.087Z,7.43
2023-04-02T01:59:13.243Z,7.45
2023-04-02T02:00:09.089Z,7.45
2023-04-02T02:01:09.184Z,7.45
2023-04-02T02:02:09.049Z,7.47
2023-04-02T02:03:09.082Z,7.45
2023-04-02T02:04:09.052Z,7.45
2023-04-02T02:05:09.046Z,7.45
2023-04-02T02:06:09.018Z,7.45
2023-04-02T02:07:09.034Z,7.47
2023-04-02T02:08:08.979Z,7.45
2023-04-02T02:09:08.965Z,7.45
2023-04-02T02:10:08.965Z,7.47
2023-04-02T02:11:08.949Z,7.42
2023-04-02T02:12:08.998Z,7.45
2023-04-02T02:13:08.940Z,7.45
2023-04-02T02:14:08.977Z,7.43
2023-04-02T02:15:08.920Z,7.43
2023-04-02T02:16:08.932Z,7.40
2023-04-02T02:17:08.897Z,7.39
2023-04-02T02:18:09.033Z,7.39
2023-04-02T02:19:08.954Z,7.39
2023-04-02T02:20:08.918Z,7.38
2023-04-02T02:21:09.031Z,7.38
2023-04-02T02:22:08.864Z,7.40
2023-04-02T02:23:09.688Z,7.45
2023-04-02T02:24:08.820Z,7.45
2023-04-02T02:25:08.793Z,7.45
2023-04-02T02:26:08.817Z,7.42
2023-04-02T02:27:08.912Z,7.43
2023-04-02T02:28:08.808Z,7.45
2023-04-02T02:29:08.757Z,7.47
2023-04-02T02:30:08.765Z,7.45
2023-04-02T02:31:08.725Z,7.40
2023-04-02T02:32:08.802Z,7.39
2023-04-02T02:33:08.711Z,7.36
2023-04-02T02:34:08.722Z,7.35
2023-04-02T02:35:08.686Z,7.33
2023-04-02T02:36:08.918Z,7.32
2023-04-02T02:37:08.668Z,7.31
2023-04-02T02:38:08.692Z,7.31
2023-04-02T02:39:08.649Z,7.28
2023-04-02T02:40:08.641Z,7.24
2023-04-02T02:41:08.615Z,7.21
2023-04-02T02:42:08.607Z,7.18
2023-04-02T02:43:08.600Z,7.15
2023-04-02T02:44:08.663Z,7.10
2023-04-02T02:45:08.586Z,7.07
2023-04-02T02:46:08.842Z,7.07
2023-04-02T02:47:08.562Z,7.05
2023-04-02T02:48:08.541Z,7.07
2023-04-02T02:49:08.535Z,7.06
2023-04-02T02:50:08.605Z,7.07
2023-04-02T02:51:08.526Z,7.10
2023-04-02T02:52:08.732Z,7.07
2023-04-02T02:53:08.499Z,7.02
2023-04-02T02:54:08.480Z,7.06
2023-04-02T02:55:08.487Z,7.06
2023-04-02T02:56:08.491Z,7.07
2023-04-02T02:57:08.544Z,7.07
2023-04-02T02:58:08.444Z,7.11
2023-04-02T02:59:08.426Z,7.13
2023-04-02T03:00:08.432Z,7.11
2023-04-02T03:01:09.950Z,7.10
2023-04-02T03:02:08.461Z,7.11
2023-04-02T03:03:08.565Z,7.10
2023-04-02T03:04:08.408Z,7.11
2023-04-02T03:05:08.722Z,7.13
2023-04-02T03:06:08.357Z,7.14
2023-04-02T03:07:08.334Z,7.14
2023-04-02T03:08:08.338Z,7.15
2023-04-02T03:09:08.309Z,7.14
2023-04-02T03:10:09.063Z,7.13
2023-04-02T03:11:08.283Z,7.10
2023-04-02T03:12:09.110Z,7.10
2023-04-02T03:13:08.265Z,7.06
2023-04-02T03:14:08.282Z,7.10
2023-04-02T03:15:08.397Z,7.10
2023-04-02T03:16:08.300Z,7.10
2023-04-02T03:17:09.073Z,7.07
2023-04-02T03:18:09.012Z,7.06
2023-04-02T03:19:09.012Z,7.06
2023-04-02T03:20:08.215Z,7.03
2023-04-02T03:21:08.220Z,7.03
2023-04-02T03:22:08.203Z,7.02
2023-04-02T03:23:08.244Z,7.02
2023-04-02T03:24:08.195Z,7.00
2023-04-02T03:25:08.190Z,6.97
2023-04-02T03:26:08.120Z,6.97
2023-04-02T03:27:08.109Z,6.99
2023-04-02T03:28:08.120Z,6.95
2023-04-02T03:29:08.126Z,6.93
2023-04-02T03:30:08.089Z,6.95
2023-04-02T03:31:08.126Z,6.93
2023-04-02T03:32:09.593Z,6.95
2023-04-02T03:33:08.139Z,6.92
2023-04-02T03:34:08.041Z,6.89
2023-04-02T03:35:08.159Z,6.89
2023-04-02T03:36:08.459Z,6.88
2023-04-02T03:37:08.935Z,6.88
2023-04-02T03:38:08.477Z,6.85
2023-04-02T03:39:08.021Z,6.84
2023-04-02T03:40:09.467Z,6.84
2023-04-02T03:41:07.995Z,6.84
2023-04-02T03:42:08.353Z,6.84
2023-04-02T03:43:08.102Z,6.82
2023-04-02T03:44:08.283Z,6.82
2023-04-02T03:45:08.146Z,6.79
2023-04-02T03:46:08.131Z,6.79
2023-04-02T03:47:07.918Z,6.77
2023-04-02T03:48:08.859Z,6.74
2023-04-02T03:49:07.885Z,6.75
2023-04-02T03:50:08.034Z,6.72
2023-04-02T03:51:07.849Z,6.69
2023-04-02T03:52:09.313Z,6.64
2023-04-02T03:53:07.988Z,6.63
2023-04-02T03:54:07.832Z,6.62
2023-04-02T03:55:08.231Z,6.62
2023-04-02T03:56:08.635Z,6.60
2023-04-02T03:57:07.853Z,6.59
2023-04-02T03:58:07.846Z,6.60
2023-04-02T03:59:07.763Z,6.60
2023-04-02T04:00:07.983Z,6.60
2023-04-02T04:01:08.730Z,6.57
2023-04-02T04:02:07.951Z,6.57
2023-04-02T04:03:07.893Z,6.51
2023-04-02T04:04:07.802Z,6.44
2023-04-02T04:05:07.702Z,6.42
2023-04-02T04:06:09.151Z,6.39
2023-04-02T04:07:08.522Z,6.39
2023-04-02T04:08:08.728Z,6.38
2023-04-02T04:09:07.891Z,6.36
2023-04-02T04:10:07.658Z,6.36
2023-04-02T04:11:07.846Z,6.33
2023-04-02T04:12:07.633Z,6.31
2023-04-02T04:13:07.621Z,6.30
2023-04-02T04:14:07.604Z,6.27
2023-04-02T04:15:07.587Z,6.26
2023-04-02T04:16:07.838Z,6.26
2023-04-02T04:17:07.591Z,6.24
2023-04-02T04:18:07.646Z,6.22
2023-04-02T04:19:07.560Z,6.22
2023-04-02T04:20:07.830Z,6.24
2023-04-02T04:21:07.694Z,6.22
2023-04-02T04:22:07.645Z,6.24
2023-04-02T04:23:07.947Z,6.24
2023-04-02T04:24:07.701Z,6.24
2023-04-02T04:25:07.478Z,6.24
2023-04-02T04:26:07.466Z,6.26
2023-04-02T04:27:07.809Z,6.28
2023-04-02T04:28:07.442Z,6.27
2023-04-02T04:29:07.470Z,6.30
2023-04-02T04:30:07.909Z,6.31
2023-04-02T04:31:07.438Z,6.30
2023-04-02T04:32:07.506Z,6.31
2023-04-02T04:33:07.406Z,6.33
2023-04-02T04:34:07.405Z,6.33
2023-04-02T04:35:07.459Z,6.35
2023-04-02T04:36:07.402Z,6.36
2023-04-02T04:37:07.348Z,6.36
2023-04-02T04:38:07.340Z,6.38
2023-04-02T04:39:08.890Z,6.38
2023-04-02T04:40:07.332Z,6.36
2023-04-02T04:41:07.321Z,6.36
2023-04-02T04:42:07.299Z,6.38
2023-04-02T04:43:07.310Z,6.39
2023-04-02T04:44:07.276Z,6.41
2023-04-02T04:45:07.266Z,6.44
2023-04-02T04:46:07.303Z,6.41
2023-04-02T04:47:07.241Z,6.39
2023-04-02T04:48:08.190Z,6.38
2023-04-02T04:49:07.295Z,6.36
2023-04-02T04:50:07.402Z,6.33
2023-04-02T04:51:07.235Z,6.33
2023-04-02T04:52:08.043Z,6.30
2023-04-02T04:53:07.171Z,6.28
2023-04-02T04:54:07.197Z,6.30
2023-04-02T04:55:08.629Z,6.28
2023-04-02T04:56:18.898Z,6.30
2023-04-02T04:57:08.759Z,6.30
2023-04-02T04:58:07.128Z,6.31
2023-04-02T04:59:07.125Z,6.30
2023-04-02T05:00:07.145Z,6.31
2023-04-02T05:01:07.161Z,6.33
2023-04-02T05:02:07.383Z,6.33
2023-04-02T05:03:07.228Z,6.35
2023-04-02T05:04:08.550Z,6.33
2023-04-02T05:05:07.302Z,6.36
2023-04-02T05:06:08.490Z,6.35
2023-04-02T05:07:07.988Z,6.35
2023-04-02T05:08:07.809Z,6.35
2023-04-02T05:09:07.061Z,6.35
2023-04-02T05:10:06.988Z,6.30
2023-04-02T05:11:06.999Z,6.28
2023-04-02T05:12:07.256Z,6.27
2023-04-02T05:13:08.428Z,6.27
2023-04-02T05:14:07.188Z,6.24
2023-04-02T05:15:06.959Z,6.24
2023-04-02T05:16:07.769Z,6.20
2023-04-02T05:17:06.897Z,6.16
2023-04-02T05:18:06.945Z,6.16
2023-04-02T05:19:06.902Z,6.14
2023-04-02T05:20:08.352Z,6.11
2023-04-02T05:21:06.875Z,6.09
2023-04-02T05:22:06.860Z,6.09
2023-04-02T05:23:06.933Z,6.09
2023-04-02T05:24:06.961Z,6.07
2023-04-02T05:25:07.785Z,6.04
2023-04-02T05:26:08.277Z,6.01
2023-04-02T05:27:06.801Z,5.97
2023-04-02T05:28:06.836Z,5.94
2023-04-02T05:29:07.313Z,5.94
2023-04-02T05:30:06.752Z,5.93
2023-04-02T05:31:06.810Z,5.93
2023-04-02T05:32:06.766Z,5.90
2023-04-02T05:33:07.157Z,5.87
2023-04-02T05:34:06.974Z,5.86
2023-04-02T05:35:06.726Z,5.84
2023-04-02T05:36:06.765Z,5.84
2023-04-02T05:37:07.261Z,5.84
2023-04-02T05:38:06.750Z,5.80
2023-04-02T05:39:06.659Z,5.83
2023-04-02T05:40:06.682Z,5.82
2023-04-02T05:41:06.631Z,5.83
2023-04-02T05:42:06.669Z,5.83
2023-04-02T05:43:06.629Z,5.84
2023-04-02T05:44:06.609Z,5.86
2023-04-02T05:45:06.607Z,5.84
2023-04-02T05:46:06.643Z,5.83
2023-04-02T05:47:06.628Z,5.80
2023-04-02T05:48:06.626Z,5.80
2023-04-02T05:49:06.551Z,5.75
2023-04-02T05:50:06.551Z,5.75
2023-04-02T05:51:06.554Z,5.75
2023-04-02T05:52:06.535Z,5.73
2023-04-02T05:53:06.551Z,5.75
2023-04-02T05:54:06.492Z,5.76
2023-04-02T05:55:06.544Z,5.75
2023-04-02T05:56:07.502Z,5.76
2023-04-02T05:57:06.484Z,5.79
2023-04-02T05:58:25.491Z,5.79
2023-04-02T05:59:07.459Z,5.79
2023-04-02T06:00:06.431Z,5.80
2023-04-02T06:01:06.418Z,5.82
2023-04-02T06:02:06.498Z,5.82
2023-04-02T06:03:06.440Z,5.82
2023-04-02T06:04:16.632Z,5.83
2023-04-02T06:05:06.390Z,5.84
2023-04-02T06:06:06.380Z,5.84
2023-04-02T06:07:06.389Z,5.87
2023-04-02T06:08:07.808Z,5.89
2023-04-02T06:09:06.434Z,5.91
2023-04-02T06:10:06.332Z,5.90
2023-04-02T06:11:06.357Z,5.90
2023-04-02T06:12:06.296Z,5.89
2023-04-02T06:13:06.297Z,5.91
2023-04-02T06:14:07.261Z,5.91
2023-04-02T06:15:06.280Z,5.91
2023-04-02T06:16:06.250Z,5.93
2023-04-02T06:17:06.246Z,5.91
2023-04-02T06:18:06.333Z,5.93
2023-04-02T06:19:06.263Z,5.94
2023-04-02T06:20:06.205Z,5.93
2023-04-02T06:21:06.208Z,5.94
2023-04-02T06:22:06.218Z,5.93
2023-04-02T06:23:08.180Z,5.94
2023-04-02T06:24:07.123Z,5.94
2023-04-02T06:25:06.169Z,5.93
2023-04-02T06:26:06.129Z,5.93
2023-04-02T06:27:07.155Z,5.90
2023-04-02T06:28:06.158Z,5.91
2023-04-02T06:29:06.157Z,5.91
2023-04-02T06:30:06.114Z,5.91
2023-04-02T06:31:06.153Z,5.93
2023-04-02T06:32:06.121Z,5.93
2023-04-02T06:33:06.137Z,5.89
2023-04-02T06:34:06.096Z,5.87
2023-04-02T06:35:06.083Z,5.87
2023-04-02T06:36:06.050Z,5.86
2023-04-02T06:37:06.023Z,5.84
2023-04-02T06:38:06.009Z,5.83
2023-04-02T06:39:06.032Z,5.83
2023-04-02T06:40:06.086Z,5.82
2023-04-02T06:41:06.018Z,5.84
2023-04-02T06:42:05.972Z,5.84
2023-04-02T06:43:05.948Z,5.84
2023-04-02T06:44:06.059Z,5.84
2023-04-02T06:45:05.928Z,5.86
2023-04-02T06:46:05.933Z,5.87
2023-04-02T06:47:05.972Z,5.86
2023-04-02T06:48:05.961Z,5.87
2023-04-02T06:49:05.934Z,5.86
2023-04-02T06:50:05.874Z,5.84
2023-04-02T06:51:05.877Z,5.87
2023-04-02T06:52:05.875Z,5.89
2023-04-02T06:53:05.857Z,5.87
2023-04-02T06:54:05.831Z,5.89
2023-04-02T06:55:05.845Z,5.89
2023-04-02T06:56:05.838Z,5.87
2023-04-02T06:57:05.849Z,5.90
2023-04-02T06:58:06.620Z,5.90
2023-04-02T06:59:05.849Z,5.90
2023-04-02T07:00:05.756Z,5.87
2023-04-02T07:01:05.830Z,5.87
2023-04-02T07:02:05.738Z,5.87
2023-04-02T07:03:05.791Z,5.87
2023-04-02T07:04:05.728Z,5.86
2023-04-02T07:05:05.858Z,5.83
2023-04-02T07:06:05.702Z,5.82
2023-04-02T07:07:05.697Z,5.79
2023-04-02T07:08:06.641Z,5.76
2023-04-02T07:09:06.482Z,5.76
2023-04-02T07:10:05.672Z,5.76
2023-04-02T07:11:05.661Z,5.75
2023-04-02T07:12:05.627Z,5.76
2023-04-02T07:13:05.653Z,5.75
2023-04-02T07:14:05.648Z,5.76
2023-04-02T07:15:05.588Z,5.75
2023-04-02T07:16:05.645Z,5.76
2023-04-02T07:17:05.586Z,5.80
2023-04-02T07:18:05.610Z,5.82
2023-04-02T07:19:05.558Z,5.80
2023-04-02T07:20:05.573Z,5.84
2023-04-02T07:21:06.520Z,5.86
2023-04-02T07:22:05.553Z,5.87
2023-04-02T07:23:05.533Z,5.89
2023-04-02T07:24:05.511Z,5.91
2023-04-02T07:25:06.456Z,5.93
2023-04-02T07:26:05.497Z,5.94
2023-04-02T07:27:05.457Z,5.97
2023-04-02T07:28:05.449Z,5.99
2023-04-02T07:29:06.186Z,6.01
2023-04-02T07:30:05.470Z,6.05
2023-04-02T07:31:05.468Z,6.07
2023-04-02T07:32:05.396Z,6.05
2023-04-02T07:33:05.410Z,6.07
2023-04-02T07:34:05.399Z,6.07
2023-04-02T07:35:05.421Z,6.08
2023-04-02T07:36:05.362Z,6.07
2023-04-02T07:37:05.374Z,6.09
2023-04-02T07:38:05.331Z,6.12
2023-04-02T07:39:05.409Z,6.14
2023-04-02T07:40:05.353Z,6.16
2023-04-02T07:41:05.306Z,6.16
2023-04-02T07:42:05.329Z,6.14
2023-04-02T07:43:05.303Z,6.12
2023-04-02T07:44:05.284Z,6.12
2023-04-02T07:45:06.213Z,6.11
2023-04-02T07:46:05.287Z,6.11
2023-04-02T07:47:05.341Z,6.12
2023-04-02T07:48:05.261Z,6.12
2023-04-02T07:49:05.248Z,6.14
2023-04-02T07:50:05.210Z,6.11
2023-04-02T07:51:05.347Z,6.08
2023-04-02T07:52:06.229Z,6.07
2023-04-02T07:53:05.208Z,6.08
2023-04-02T07:54:05.263Z,6.07
2023-04-02T07:55:05.160Z,6.07
2023-04-02T07:56:05.137Z,6.05
2023-04-02T07:57:05.215Z,6.05
2023-04-02T07:58:05.109Z,6.05
2023-04-02T07:59:05.130Z,6.02
2023-04-02T08:00:05.914Z,6.01
2023-04-02T08:01:05.109Z,6.02
2023-04-02T08:02:05.101Z,6.04
2023-04-02T08:03:05.400Z,6.02
2023-04-02T08:04:05.131Z,5.99
2023-04-02T08:05:06.222Z,5.98
2023-04-02T08:06:05.072Z,5.97
2023-04-02T08:07:05.023Z,5.93
2023-04-02T08:08:05.013Z,5.94
2023-04-02T08:09:05.000Z,5.94
2023-04-02T08:10:06.235Z,5.94
2023-04-02T08:11:04.998Z,5.94
2023-04-02T08:12:05.018Z,5.94
2023-04-02T08:13:04.951Z,5.94
2023-04-02T08:14:04.946Z,5.98
2023-04-02T08:15:05.040Z,5.99
2023-04-02T08:16:04.931Z,6.01
2023-04-02T08:17:04.952Z,6.02
2023-04-02T08:18:05.026Z,6.04
2023-04-02T08:19:04.896Z,6.05
2023-04-02T08:20:04.894Z,6.05
2023-04-02T08:21:04.878Z,6.07
2023-04-02T08:22:04.848Z,6.07
2023-04-02T08:23:04.889Z,6.07
2023-04-02T08:24:04.836Z,6.09
2023-04-02T08:25:04.831Z,6.11
2023-04-02T08:26:04.810Z,6.11
2023-04-02T08:27:04.831Z,6.12
2023-04-02T08:28:04.826Z,6.09
2023-04-02T08:29:04.804Z,6.09
2023-04-02T08:30:04.821Z,6.09
2023-04-02T08:31:05.028Z,6.08
2023-04-02T08:32:04.736Z,6.07
2023-04-02T08:33:04.803Z,6.08
2023-04-02T08:34:04.718Z,6.08
2023-04-02T08:35:04.720Z,6.09
2023-04-02T08:36:06.219Z,6.12
2023-04-02T08:37:04.737Z,6.16
2023-04-02T08:38:04.675Z,6.16
2023-04-02T08:39:04.672Z,6.14
2023-04-02T08:40:04.655Z,6.14
2023-04-02T08:41:04.691Z,6.12
2023-04-02T08:42:04.659Z,6.12
2023-04-02T08:43:04.644Z,6.11
2023-04-02T08:44:04.596Z,6.09
2023-04-02T08:45:13.734Z,6.07
2023-04-02T08:46:05.622Z,6.07
2023-04-02T08:47:04.578Z,6.04
2023-04-02T08:48:04.627Z,6.07
2023-04-02T08:49:04.563Z,6.07
2023-04-02T08:50:04.539Z,6.08
2023-04-02T08:51:04.524Z,6.09
2023-04-02T08:52:04.513Z,6.14
2023-04-02T08:53:04.511Z,6.16
2023-04-02T08:54:04.540Z,6.17
2023-04-02T08:55:04.532Z,6.20
2023-04-02T08:56:04.477Z,6.26
2023-04-02T08:57:04.480Z,6.26
2023-04-02T08:58:04.462Z,6.27
2023-04-02T08:59:05.418Z,6.30
2023-04-02T09:00:04.480Z,6.33
2023-04-02T09:01:04.435Z,6.33
2023-04-02T09:02:04.430Z,6.39
2023-04-02T09:03:04.459Z,6.45
2023-04-02T09:04:04.377Z,6.48
2023-04-02T09:05:04.466Z,6.52
2023-04-02T09:06:04.429Z,6.57
2023-04-02T09:07:04.358Z,6.60
2023-04-02T09:08:04.363Z,6.64
2023-04-02T09:09:04.362Z,6.70
2023-04-02T09:10:04.312Z,6.74
2023-04-02T09:11:04.389Z,6.74
2023-04-02T09:12:04.529Z,6.74
2023-04-02T09:13:04.310Z,6.75
2023-04-02T09:14:04.398Z,6.78
2023-04-02T09:15:04.259Z,6.79
2023-04-02T09:16:04.277Z,6.78
2023-04-02T09:17:05.404Z,6.78
2023-04-02T09:18:04.242Z,6.79
2023-04-02T09:19:04.226Z,6.79
2023-04-02T09:20:04.205Z,6.82
2023-04-02T09:21:04.191Z,6.85
2023-04-02T09:22:04.191Z,6.88
2023-04-02T09:23:04.209Z,6.93
2023-04-02T09:24:05.239Z,6.93
2023-04-02T09:25:04.162Z,6.96
2023-04-02T09:26:05.008Z,6.95
2023-04-02T09:27:04.152Z,6.97
2023-04-02T09:28:04.182Z,6.97
2023-04-02T09:29:04.169Z,7.00
2023-04-02T09:30:04.202Z,7.02
2023-04-02T09:31:06.242Z,7.03
2023-04-02T09:32:04.177Z,7.05
2023-04-02T09:33:04.165Z,7.05
2023-04-02T09:34:04.056Z,7.06
2023-04-02T09:35:09.593Z,7.07
2023-04-02T09:36:05.052Z,7.10
2023-04-02T09:37:04.020Z,7.15
2023-04-02T09:38:04.017Z,7.18
2023-04-02T09:39:04.013Z,7.23
2023-04-02T09:40:04.004Z,7.24
2023-04-02T09:41:04.002Z,7.24
2023-04-02T09:42:05.844Z,7.31
2023-04-02T09:43:03.991Z,7.38
2023-04-02T09:44:03.962Z,7.43
2023-04-02T09:45:03.945Z,7.45
2023-04-02T09:46:03.961Z,7.45
2023-04-02T09:47:05.008Z,7.43
2023-04-02T09:48:05.396Z,7.43
2023-04-02T09:49:04.112Z,7.42
2023-04-02T09:50:03.876Z,7.42
2023-04-02T09:51:03.881Z,7.40
2023-04-02T09:52:03.855Z,7.38
2023-04-02T09:53:05.316Z,7.38
2023-04-02T09:54:03.845Z,7.36
2023-04-02T09:55:03.846Z,7.40
2023-04-02T09:56:03.804Z,7.39
2023-04-02T09:57:03.871Z,7.45
2023-04-02T09:58:03.781Z,7.50
2023-04-02T09:59:03.796Z,7.56
2023-04-02T10:00:03.774Z,7.57
2023-04-02T10:01:03.892Z,7.58
2023-04-02T10:02:03.756Z,7.63
2023-04-02T10:03:03.762Z,7.67
2023-04-02T10:04:03.760Z,7.73
2023-04-02T10:05:03.734Z,7.73
2023-04-02T10:06:03.747Z,7.70
2023-04-02T10:07:03.686Z,7.69
2023-04-02T10:08:03.673Z,7.67
2023-04-02T10:09:03.670Z,7.63
2023-04-02T10:10:03.673Z,7.66
2023-04-02T10:11:03.637Z,7.63
2023-04-02T10:12:03.667Z,7.61
2023-04-02T10:13:03.663Z,7.60
2023-04-02T10:14:03.996Z,7.57
2023-04-02T10:15:03.647Z,7.56
2023-04-02T10:16:03.644Z,7.56
2023-04-02T10:17:03.621Z,7.51
2023-04-02T10:18:03.864Z,7.53
2023-04-02T10:19:05.027Z,7.53
2023-04-02T10:20:05.031Z,7.54
2023-04-02T10:21:03.556Z,7.56
2023-04-02T10:22:03.544Z,7.56
2023-04-02T10:23:05.372Z,7.53
2023-04-02T10:24:03.517Z,7.48
2023-04-02T10:25:03.495Z,7.47
2023-04-02T10:26:03.525Z,7.43
2023-04-02T10:27:03.475Z,7.42
2023-04-02T10:28:03.459Z,7.42
2023-04-02T10:29:05.537Z,7.42
2023-04-02T10:30:03.444Z,7.40
2023-04-02T10:31:03.465Z,7.42
2023-04-02T10:32:03.625Z,7.42
2023-04-02T10:33:04.291Z,7.43
2023-04-02T10:34:03.413Z,7.47
2023-04-02T10:35:04.229Z,7.47
2023-04-02T10:36:04.854Z,7.48
2023-04-02T10:37:03.390Z,7.50
2023-04-02T10:38:03.378Z,7.51
2023-04-02T10:39:03.393Z,7.51
2023-04-02T10:40:03.342Z,7.51
2023-04-02T10:41:03.842Z,7.51
2023-04-02T10:42:03.305Z,7.50
2023-04-02T10:43:03.291Z,7.47
2023-04-02T10:44:13.182Z,7.48
2023-04-02T10:45:04.269Z,7.48
2023-04-02T10:46:03.407Z,7.50
2023-04-02T10:47:03.838Z,7.48
2023-04-02T10:48:03.324Z,7.51
2023-04-02T10:49:03.235Z,7.51
2023-04-02T10:50:03.238Z,7.54
2023-04-02T10:51:03.208Z,7.57
2023-04-02T10:52:03.200Z,7.60
2023-04-02T10:53:03.179Z,7.61
2023-04-02T10:54:03.182Z,7.66
2023-04-02T10:55:03.199Z,7.66
2023-04-02T10:56:03.177Z,7.67
2023-04-02T10:57:03.403Z,7.63
2023-04-02T10:58:03.249Z,7.61
2023-04-02T10:59:03.118Z,7.61
2023-04-02T11:00:04.575Z,7.66
2023-04-02T11:01:03.902Z,7.69
2023-04-02T11:02:03.687Z,7.67
2023-04-02T11:03:03.224Z,7.70
2023-04-02T11:04:04.567Z,7.72
2023-04-02T11:05:03.155Z,7.69
2023-04-02T11:06:03.124Z,7.67
2023-04-02T11:07:13.225Z,7.69
2023-04-02T11:08:04.032Z,7.67
2023-04-02T11:09:03.010Z,7.67
2023-04-02T11:10:04.519Z,7.63
2023-04-02T11:11:04.560Z,7.63
2023-04-02T11:12:03.022Z,7.63
2023-04-02T11:13:03.202Z,7.61
2023-04-02T11:14:04.426Z,7.61
2023-04-02T11:15:03.734Z,7.61
2023-04-02T11:16:02.981Z,7.61
2023-04-02T11:17:02.955Z,7.60
2023-04-02T11:18:02.953Z,7.60
2023-04-02T11:19:02.888Z,7.57
2023-04-02T11:20:02.872Z,7.57
2023-04-02T11:21:02.869Z,7.56
2023-04-02T11:22:05.865Z,7.54
2023-04-02T11:23:02.849Z,7.50
2023-04-02T11:24:02.839Z,7.50
2023-04-02T11:25:02.825Z,7.48
2023-04-02T11:26:03.186Z,7.51
2023-04-02T11:27:02.809Z,7.53
2023-04-02T11:28:02.829Z,7.53
2023-04-02T11:29:02.802Z,7.53
2023-04-02T11:30:02.767Z,7.53
2023-04-02T11:31:02.808Z,7.54
2023-04-02T11:32:04.734Z,7.57
2023-04-02T11:33:02.783Z,7.57
2023-04-02T11:34:02.726Z,7.56
2023-04-02T11:35:06.513Z,7.57
2023-04-02T11:36:02.749Z,7.60
2023-04-02T11:37:02.706Z,7.61
2023-04-02T11:38:02.686Z,7.63
2023-04-02T11:39:11.025Z,7.66
2023-04-02T11:40:03.681Z,7.70
2023-04-02T11:41:02.651Z,7.73
2023-04-02T11:42:02.694Z,7.77
2023-04-02T11:43:02.625Z,7.82
2023-04-02T11:44:02.623Z,7.83
2023-04-02T11:45:04.072Z,7.85
2023-04-02T11:46:02.590Z,7.85
2023-04-02T11:47:02.612Z,7.88
2023-04-02T11:48:02.736Z,7.93
2023-04-02T11:49:02.574Z,7.98
2023-04-02T11:50:02.602Z,8.03
2023-04-02T11:51:02.536Z,8.05
2023-04-02T11:52:11.468Z,8.06
2023-04-02T11:53:03.553Z,8.08
2023-04-02T11:54:02.533Z,8.05
2023-04-02T11:55:02.513Z,8.05
2023-04-02T11:56:02.538Z,8.03
2023-04-02T11:57:02.547Z,8.01
2023-04-02T11:58:02.496Z,8.01
2023-04-02T11:59:02.482Z,8.01
2023-04-02T12:00:02.455Z,8.00
2023-04-02T12:01:02.445Z,7.97
2023-04-02T12:02:02.441Z,7.95
2023-04-02T12:03:02.452Z,7.94
2023-04-02T12:04:02.378Z,7.95
2023-04-02T12:05:02.407Z,7.97
2023-04-02T12:06:04.128Z,8.00
2023-04-02T12:07:03.842Z,8.03
2023-04-02T12:08:03.187Z,8.03
2023-04-02T12:09:02.329Z,8.06
2023-04-02T12:10:02.337Z,8.05
2023-04-02T12:11:02.353Z,8.03
2023-04-02T12:12:03.826Z,8.00
2023-04-02T12:13:02.354Z,7.98
2023-04-02T12:14:03.124Z,7.97
2023-04-02T12:15:02.410Z,7.98
2023-04-02T12:16:03.726Z,7.98
2023-04-02T12:17:03.393Z,7.98
2023-04-02T12:18:02.424Z,8.00
2023-04-02T12:19:02.234Z,8.01
2023-04-02T12:20:04.353Z,8.03
2023-04-02T12:21:03.199Z,8.05
2023-04-02T12:22:02.184Z,8.06
2023-04-02T12:23:02.178Z,8.08
2023-04-02T12:24:02.186Z,8.08
2023-04-02T12:25:02.165Z,8.08
2023-04-02T12:26:02.140Z,8.08
2023-04-02T12:27:02.165Z,8.05
2023-04-02T12:28:02.175Z,8.03
2023-04-02T12:29:02.118Z,8.01
2023-04-02T12:30:02.105Z,8.00
2023-04-02T12:31:02.149Z,8.05
2023-04-02T12:32:02.568Z,8.08
2023-04-02T12:33:02.097Z,8.13
2023-04-02T12:34:02.108Z,8.15
2023-04-02T12:35:03.750Z,8.16
2023-04-02T12:36:02.038Z,8.16
2023-04-02T12:37:02.062Z,8.16
2023-04-02T12:38:02.004Z,8.15
2023-04-02T12:39:02.011Z,8.13
2023-04-02T12:40:02.015Z,8.12
2023-04-02T12:41:01.992Z,8.09
2023-04-02T12:42:02.137Z,8.12
2023-04-02T12:43:02.001Z,8.12
2023-04-02T12:44:01.976Z,8.12
2023-04-02T12:45:01.947Z,8.15
2023-04-02T12:46:02.156Z,8.18
2023-04-02T12:47:01.913Z,8.20
2023-04-02T12:48:02.493Z,8.27
2023-04-02T12:49:02.737Z,8.30
2023-04-02T12:50:01.966Z,8.30
2023-04-02T12:51:01.945Z,8.28
2023-04-02T12:52:01.856Z,8.26
2023-04-02T12:53:02.870Z,8.24
2023-04-02T12:54:01.856Z,8.26
2023-04-02T12:55:01.861Z,8.24
2023-04-02T12:56:01.830Z,8.27
2023-04-02T12:57:01.894Z,8.27
2023-04-02T12:58:01.835Z,8.28
2023-04-02T12:59:01.869Z,8.28
2023-04-02T13:00:02.634Z,8.28
2023-04-02T13:01:01.759Z,8.30
2023-04-02T13:02:01.797Z,8.34
2023-04-02T13:03:01.823Z,8.36
2023-04-02T13:04:01.753Z,8.38
2023-04-02T13:05:01.739Z,8.42
2023-04-02T13:06:01.742Z,8.42
2023-04-02T13:07:01.713Z,8.44
2023-04-02T13:08:01.708Z,8.42
2023-04-02T13:09:01.685Z,8.42
2023-04-02T13:10:01.690Z,8.37
2023-04-02T13:11:01.671Z,8.36
2023-04-02T13:12:01.674Z,8.34
2023-04-02T13:13:01.680Z,8.33
2023-04-02T13:14:01.731Z,8.31
2023-04-02T13:15:01.620Z,8.30
2023-04-02T13:16:03.125Z,8.28
2023-04-02T13:17:01.710Z,8.27
2023-04-02T13:18:01.684Z,8.27